Time;durP1;ratioP1;P1;durP2;ratioP2;P2;SDS_P1;SDS_P2;PMS_P1;PMS_P2;Temp;Humidity;BMP_temperature;BMP_pressure;BME280_temperature;BME280_humidity;BME280_pressure;Samples;Min_cycle;Max_cycle;Signal;HPM_P1;HPM_P2
2022/09/14 00:01:21;;;;;;;12.55;3.55;;;21.40;66.40;;;;;;4909105;29;20027;-73
2022/09/14 00:03:51;;;;;;;6.32;2.80;;;21.40;66.50;;;;;;4903999;29;20035;-73
2022/09/14 00:06:17;;;;;;;;;;;21.40;66.40;;;;;;4916829;29;20468;-74
2022/09/14 00:08:43;;;;;;;12.95;2.92;;;21.40;66.50;;;;;;4889974;29;19918;-73
2022/09/14 00:11:12;;;;;;;8.52;2.95;;;21.40;66.30;;;;;;4895897;29;20044;-73
2022/09/14 00:13:39;;;;;;;12.38;3.15;;;21.40;66.30;;;;;;4902286;29;20036;-74
2022/09/14 00:16:09;;;;;;;6.55;2.72;;;21.40;66.30;;;;;;4911073;29;20039;-74
2022/09/14 00:18:35;;;;;;;6.03;2.72;;;21.40;66.40;;;;;;4902936;29;20520;-74
2022/09/14 00:21:02;;;;;;;9.77;2.95;;;21.40;66.50;;;;;;4910762;29;20047;-74
2022/09/14 00:23:28;;;;;;;9.88;3.03;;;21.40;66.40;;;;;;4901399;29;20088;-74
2022/09/14 00:25:54;;;;;;;7.28;2.85;;;21.40;66.60;;;;;;4904231;29;20025;-74
2022/09/14 00:28:20;;;;;;;10.68;2.80;;;21.40;66.50;;;;;;4910655;29;20024;-74
2022/09/14 00:30:46;;;;;;;7.00;3.00;;;21.40;66.50;;;;;;4911167;29;20055;-73
2022/09/14 00:33:12;;;;;;;11.45;3.70;;;21.40;66.60;;;;;;4908179;29;20472;-76
2022/09/14 00:35:38;;;;;;;7.78;2.78;;;21.40;66.60;;;;;;4905173;29;20029;-74
2022/09/14 00:38:05;;;;;;;32.75;3.33;;;21.30;65.90;;;;;;4908457;29;20096;-74
2022/09/14 00:40:31;;;;;;;10.00;2.50;;;21.30;65.10;;;;;;4915743;29;20488;-73
2022/09/14 00:42:57;;;;;;;19.30;3.35;;;21.30;65.60;;;;;;4902525;29;20055;-74
2022/09/14 00:45:24;;;;;;;10.98;2.90;;;21.30;65.60;;;;;;4906323;29;20063;-73
2022/09/14 00:47:52;;;;;;;10.32;2.50;;;21.30;65.70;;;;;;4905648;29;20493;-73
2022/09/14 00:50:19;;;;;;;8.57;2.40;;;21.30;65.70;;;;;;4904779;29;20116;-73
2022/09/14 00:52:47;;;;;;;14.63;2.83;;;21.30;65.50;;;;;;4906493;29;20033;-74
2022/09/14 00:55:16;;;;;;;10.95;3.03;;;21.30;65.50;;;;;;4914389;29;20020;-74
2022/09/14 00:57:46;;;;;;;8.13;2.50;;;21.30;65.80;;;;;;4911666;29;20020;-74
2022/09/14 01:00:16;;;;;;;11.13;2.33;;;21.30;65.50;;;;;;4913867;29;20056;-74
2022/09/14 01:02:42;;;;;;;9.98;2.53;;;21.30;65.40;;;;;;4913540;29;20024;-74
2022/09/14 01:05:09;;;;;;;13.23;2.85;;;21.30;65.40;;;;;;4908716;29;20039;-73
2022/09/14 01:08:07;;;;;;;10.63;2.53;;;21.30;65.30;;;;;;4908364;29;20111;-73
2022/09/14 01:10:43;;;;;;;7.88;2.13;;;21.30;65.30;;;;;;4906947;29;20016;-74
2022/09/14 01:13:46;;;;;;;13.13;2.30;;;21.30;65.40;;;;;;4894946;29;20104;-74
2022/09/14 01:16:22;;;;;;;8.25;2.33;;;21.30;65.10;;;;;;4902397;29;20027;-74
2022/09/14 01:18:57;;;;;;;6.18;2.20;;;21.30;65.20;;;;;;4909617;29;20094;-74
2022/09/14 01:21:33;;;;;;;9.63;2.80;;;21.30;65.10;;;;;;4905268;29;20024;-74
2022/09/14 01:24:15;;;;;;;10.30;2.08;;;21.30;64.80;;;;;;4900949;29;20087;-74
2022/09/14 01:27:00;;;;;;;9.68;2.28;;;21.30;65.10;;;;;;4903655;29;20044;-74
2022/09/14 01:29:33;;;;;;;8.65;2.25;;;21.30;65.00;;;;;;4901702;29;20516;-74
2022/09/14 01:32:04;;;;;;;6.50;2.15;;;21.30;65.10;;;;;;4909982;29;20034;-74
2022/09/14 01:34:44;;;;;;;8.40;2.33;;;21.30;64.90;;;;;;4910191;29;20039;-74
2022/09/14 01:37:34;;;;;;;4.28;1.92;;;21.30;64.80;;;;;;4907503;29;20056;-74
2022/09/14 01:40:24;;;;;;;4.75;2.10;;;21.30;64.90;;;;;;4913624;29;20095;-74
2022/09/14 01:42:57;;;;;;;6.30;2.00;;;21.30;64.80;;;;;;4913151;29;20408;-73
2022/09/14 01:45:26;;;;;;;8.52;2.15;;;21.30;64.80;;;;;;4893169;29;20024;-73
2022/09/14 01:47:59;;;;;;;9.60;2.35;;;21.30;64.70;;;;;;4914665;29;20029;-73
2022/09/14 01:50:34;;;;;;;7.65;2.33;;;21.30;64.60;;;;;;4910964;29;20047;-73
2022/09/14 01:53:16;;;;;;;9.63;2.20;;;21.30;64.30;;;;;;4907449;29;20020;-73
2022/09/14 01:55:52;;;;;;;7.40;2.13;;;21.30;64.40;;;;;;4914127;29;20028;-73
2022/09/14 01:58:24;;;;;;;9.98;2.15;;;21.30;64.30;;;;;;4898851;29;20020;-73
2022/09/14 02:00:55;;;;;;;9.15;2.45;;;21.30;64.20;;;;;;4910225;29;20071;-73
2022/09/14 02:03:30;;;;;;;7.05;2.20;;;21.30;64.20;;;;;;4909585;29;20020;-74
2022/09/14 02:06:10;;;;;;;9.65;1.95;;;21.30;64.30;;;;;;4907917;29;20028;-74
2022/09/14 02:08:36;;;;;;;6.80;1.92;;;21.30;64.10;;;;;;4910223;29;20185;-74
2022/09/14 02:11:01;;;;;;;7.72;2.10;;;21.30;64.20;;;;;;4909397;29;20039;-74
2022/09/14 02:13:28;;;;;;;8.73;2.10;;;21.30;64.10;;;;;;4910272;29;20028;-74
2022/09/14 02:15:54;;;;;;;7.07;2.20;;;21.30;64.20;;;;;;4908835;29;20401;-73
2022/09/14 02:18:20;;;;;;;6.82;2.08;;;21.30;64.20;;;;;;4909916;29;20032;-73
2022/09/14 02:21:01;;;;;;;6.05;2.10;;;21.30;63.90;;;;;;4915761;29;20031;-73
2022/09/14 02:23:27;;;;;;;9.90;2.22;;;21.30;64.00;;;;;;4910976;29;20034;-73
2022/09/14 02:25:53;;;;;;;4.60;1.95;;;21.30;63.90;;;;;;4903128;29;20547;-73
2022/09/14 02:28:20;;;;;;;8.63;2.17;;;21.30;64.00;;;;;;4904842;29;20088;-73
2022/09/14 02:31:23;;;;;;;5.63;1.70;;;21.20;63.80;;;;;;4914562;29;20055;-73
2022/09/14 02:34:10;;;;;;;8.63;2.30;;;21.20;63.90;;;;;;4907440;29;20024;-73
2022/09/14 02:36:58;;;;;;;5.72;2.08;;;21.20;64.00;;;;;;4908662;29;20036;-73
2022/09/14 02:39:47;;;;;;;7.35;2.00;;;21.20;64.00;;;;;;4903779;29;20066;-73
2022/09/14 02:42:16;;;;;;;8.97;1.93;;;21.20;64.00;;;;;;4905507;29;20016;-73
2022/09/14 02:45:07;;;;;;;10.13;2.50;;;21.20;63.80;;;;;;4906578;29;20037;-73
2022/09/14 02:47:58;;;;;;;5.88;1.92;;;21.30;64.00;;;;;;4903341;29;20039;-73
2022/09/14 02:50:35;;;;;;;5.95;1.70;;;21.20;63.90;;;;;;4903616;29;20032;-73
2022/09/14 02:53:14;;;;;;;8.68;1.77;;;21.20;63.90;;;;;;4907646;29;20039;-73
2022/09/14 02:55:46;;;;;;;7.38;2.05;;;21.20;63.80;;;;;;4908248;29;20131;-73
2022/09/14 02:58:13;;;;;;;7.68;1.80;;;21.20;64.00;;;;;;4902807;29;20052;-73
2022/09/14 03:00:45;;;;;;;6.28;2.05;;;21.20;63.90;;;;;;4915255;29;20027;-73
2022/09/14 03:03:14;;;;;;;7.45;1.70;;;21.20;63.90;;;;;;4902688;29;20489;-73
2022/09/14 03:05:40;;;;;;;6.85;1.63;;;21.20;63.80;;;;;;4905920;29;20039;-73
2022/09/14 03:08:06;;;;;;;6.53;1.67;;;21.20;63.80;;;;;;4908250;29;20028;-73
2022/09/14 03:10:33;;;;;;;7.30;1.65;;;21.20;63.60;;;;;;4915592;29;20067;-74
2022/09/14 03:12:59;;;;;;;13.50;2.33;;;21.20;63.70;;;;;;4907066;29;20437;-74
2022/09/14 03:15:26;;;;;;;5.57;1.70;;;21.20;63.60;;;;;;4908921;29;20044;-73
2022/09/14 03:17:52;;;;;;;6.35;2.30;;;21.20;63.70;;;;;;4905741;29;20104;-73
2022/09/14 03:20:26;;;;;;;8.98;2.05;;;21.20;64.20;;;;;;4913921;29;20024;-73
2022/09/14 03:22:53;;;;;;;5.70;1.80;;;21.20;63.50;;;;;;4907814;29;20028;-74
2022/09/14 03:25:19;;;;;;;7.18;1.88;;;21.20;64.10;;;;;;4909999;29;20024;-74
2022/09/14 03:27:49;;;;;;;5.10;1.70;;;21.20;63.50;;;;;;4906047;29;20064;-74
2022/09/14 03:30:16;;;;;;;6.90;1.98;;;21.20;63.40;;;;;;4902471;29;20028;-74
2022/09/14 03:32:42;;;;;;;8.98;2.20;;;21.20;63.40;;;;;;4910804;29;20388;-74
2022/09/14 03:35:08;;;;;;;5.13;2.03;;;21.20;63.30;;;;;;4905577;29;20024;-74
2022/09/14 03:37:38;;;;;;;6.18;1.85;;;21.20;63.30;;;;;;4905254;29;20028;-73
2022/09/14 03:40:05;;;;;;;10.38;1.80;;;21.10;63.30;;;;;;4909704;29;20033;-74
2022/09/14 03:42:30;;;;;;;7.25;1.67;;;21.20;63.40;;;;;;4905793;29;20387;-74
2022/09/14 03:44:57;;;;;;;9.57;2.10;;;21.20;63.20;;;;;;4907857;29;20035;-74
2022/09/14 03:47:23;;;;;;;5.63;1.55;;;21.10;63.20;;;;;;4908786;29;20039;-73
2022/09/14 03:49:49;;;;;;;8.00;1.90;;;21.10;63.20;;;;;;4906596;29;20409;-73
2022/09/14 03:52:15;;;;;;;10.90;2.20;;;21.20;63.20;;;;;;4906300;29;20028;-73
2022/09/14 03:54:41;;;;;;;8.13;1.75;;;21.20;63.30;;;;;;4912790;29;20039;-73
2022/09/14 03:57:07;;;;;;;7.38;2.00;;;21.10;63.00;;;;;;4905426;29;20040;-73
2022/09/14 03:59:33;;;;;;;8.82;1.95;;;21.20;63.30;;;;;;4908527;29;20033;-74
2022/09/14 04:02:00;;;;;;;5.03;1.60;;;21.10;63.00;;;;;;4906849;29;20028;-73
2022/09/14 04:04:26;;;;;;;9.07;2.35;;;21.10;63.10;;;;;;4903988;29;20063;-73
2022/09/14 04:06:52;;;;;;;5.57;1.52;;;21.10;63.10;;;;;;4906678;29;20500;-73
2022/09/14 04:09:18;;;;;;;7.60;1.58;;;21.10;63.00;;;;;;4892242;29;20032;-73
2022/09/14 04:11:45;;;;;;;5.95;1.70;;;21.10;63.00;;;;;;4904565;29;20029;-74
2022/09/14 04:14:11;;;;;;;11.48;2.03;;;21.10;63.10;;;;;;4870621;29;20108;-73
2022/09/14 04:16:39;;;;;;;10.88;1.95;;;21.10;62.90;;;;;;4908841;29;20032;-74
2022/09/14 04:19:05;;;;;;;8.25;1.70;;;21.10;63.10;;;;;;4896158;29;20039;-74
2022/09/14 04:21:31;;;;;;;6.47;1.60;;;21.20;63.00;;;;;;4906198;29;20024;-73
2022/09/14 04:23:58;;;;;;;6.40;1.77;;;21.10;63.60;;;;;;4905538;29;20121;-74
2022/09/14 04:26:28;;;;;;;6.15;1.50;;;21.20;63.00;;;;;;4902630;29;20034;-73
2022/09/14 04:28:55;;;;;;;4.55;1.75;;;21.10;62.80;;;;;;4896813;29;20033;-73
2022/09/14 04:31:22;;;;;;;5.97;1.83;;;21.10;62.80;;;;;;4891384;29;20111;-73
2022/09/14 04:33:49;;;;;;;7.78;1.88;;;21.20;62.80;;;;;;4907650;29;20024;-74
2022/09/14 04:36:18;;;;;;;7.25;1.90;;;21.10;62.90;;;;;;4909671;29;20119;-73
2022/09/14 04:38:44;;;;;;;8.98;2.65;;;21.10;62.90;;;;;;4905818;29;20069;-74
2022/09/14 04:41:19;;;;;;;9.07;2.38;;;21.10;62.80;;;;;;4910410;29;20074;-74
2022/09/14 04:43:46;;;;;;;11.20;2.33;;;21.10;62.80;;;;;;4905048;29;20172;-74
2022/09/14 04:46:14;;;;;;;7.00;2.10;;;21.10;62.70;;;;;;4908978;29;20031;-73
2022/09/14 04:48:40;;;;;;;5.32;1.83;;;21.10;62.80;;;;;;4909924;29;20107;-73
2022/09/14 04:51:12;;;;;;;6.40;1.90;;;21.10;62.90;;;;;;4903552;29;20054;-73
2022/09/14 04:53:39;;;;;;;6.30;2.08;;;21.10;62.90;;;;;;4901841;29;20084;-73
2022/09/14 04:56:08;;;;;;;6.38;2.10;;;21.20;62.90;;;;;;4904629;29;20039;-73
2022/09/14 04:58:38;;;;;;;6.47;1.90;;;21.10;62.80;;;;;;4913742;29;20024;-73
2022/09/14 05:01:10;;;;;;;6.85;1.88;;;21.10;62.80;;;;;;4910458;29;20080;-73
2022/09/14 05:03:37;;;;;;;6.35;1.70;;;21.10;62.70;;;;;;4896845;29;20024;-73
2022/09/14 05:06:09;;;;;;;5.50;1.88;;;21.10;62.60;;;;;;4906091;29;20091;-73
2022/09/14 05:08:37;;;;;;;6.63;1.85;;;21.10;62.70;;;;;;4903224;29;20044;-73
2022/09/14 05:11:04;;;;;;;4.55;1.50;;;21.10;62.70;;;;;;4905638;29;20044;-73
2022/09/14 05:13:30;;;;;;;5.35;1.80;;;21.10;62.70;;;;;;4890266;29;20452;-74
2022/09/14 05:16:14;;;;;;;8.50;2.08;;;21.10;62.60;;;;;;4915226;29;20024;-73
2022/09/14 05:18:39;;;;;;;6.75;1.95;;;21.20;62.70;;;;;;4898284;29;20056;-73
2022/09/14 05:21:09;;;;;;;8.05;1.98;;;21.10;62.60;;;;;;4906819;29;20130;-73
2022/09/14 05:23:35;;;;;;;7.72;2.10;;;21.10;62.60;;;;;;4901620;29;20032;-73
2022/09/14 05:26:02;;;;;;;7.75;2.00;;;21.10;62.70;;;;;;4907357;29;20032;-73
2022/09/14 05:28:27;;;;;;;7.30;2.00;;;21.10;62.60;;;;;;4903754;29;20028;-74
2022/09/14 05:30:54;;;;;;;6.43;1.80;;;21.10;62.60;;;;;;4904949;29;20076;-73
2022/09/14 05:33:21;;;;;;;8.95;2.10;;;21.10;62.60;;;;;;4907454;29;20096;-74
2022/09/14 05:35:47;;;;;;;7.07;2.10;;;21.10;62.60;;;;;;4907637;29;20037;-73
2022/09/14 05:38:13;;;;;;;8.80;2.00;;;21.10;63.10;;;;;;4905914;29;20115;-74
2022/09/14 05:40:39;;;;;;;7.50;2.00;;;21.10;62.50;;;;;;4909583;29;20103;-73
2022/09/14 05:43:05;;;;;;;9.20;1.85;;;21.10;62.60;;;;;;4905458;29;20060;-73
2022/09/14 05:45:31;;;;;;;7.65;1.88;;;21.10;62.50;;;;;;4907242;29;20051;-73
2022/09/14 05:48:01;;;;;;;6.15;1.80;;;21.10;62.50;;;;;;4911638;29;20448;-74
2022/09/14 05:50:27;;;;;;;7.63;2.10;;;21.10;62.40;;;;;;4900816;29;20092;-74
2022/09/14 05:52:54;;;;;;;10.60;2.08;;;21.10;62.40;;;;;;4912676;29;20429;-74
2022/09/14 05:55:19;;;;;;;7.20;2.08;;;21.10;62.50;;;;;;4906000;29;20076;-74
2022/09/14 05:57:49;;;;;;;9.20;2.10;;;21.10;62.50;;;;;;4913078;29;20035;-74
2022/09/14 06:00:15;;;;;;;14.90;2.50;;;21.10;62.40;;;;;;4903743;29;20235;-74
2022/09/14 06:02:48;;;;;;;9.02;2.03;;;21.10;62.30;;;;;;4912032;29;20024;-74
2022/09/14 06:05:15;;;;;;;8.30;2.25;;;21.10;62.90;;;;;;4901692;29;20028;-73
2022/09/14 06:07:41;;;;;;;6.80;2.30;;;21.10;62.30;;;;;;4910528;29;20039;-74
2022/09/14 06:10:07;;;;;;;9.88;2.05;;;21.10;62.40;;;;;;4907128;29;20032;-74
2022/09/14 06:12:33;;;;;;;11.10;2.38;;;21.10;62.30;;;;;;4905992;29;20036;-74
2022/09/14 06:14:59;;;;;;;8.05;1.92;;;21.10;62.40;;;;;;4912629;29;20596;-74
2022/09/14 06:17:25;;;;;;;7.78;1.85;;;21.10;62.50;;;;;;4910597;29;20376;-74
2022/09/14 06:19:51;;;;;;;8.57;2.05;;;21.10;62.30;;;;;;4893180;29;20107;-74
2022/09/14 06:22:16;;;;;;;8.43;2.10;;;21.10;62.40;;;;;;4916356;29;20021;-74
2022/09/14 06:24:42;;;;;;;6.07;2.30;;;21.10;62.30;;;;;;4908692;29;20080;-74
2022/09/14 06:27:09;;;;;;;8.98;2.20;;;21.10;62.30;;;;;;4902528;29;20024;-74
2022/09/14 06:29:34;;;;;;;8.40;2.05;;;21.10;62.30;;;;;;4904711;29;20040;-74
2022/09/14 06:32:00;;;;;;;6.75;2.00;;;21.10;62.30;;;;;;4896240;29;20544;-74
2022/09/14 06:34:26;;;;;;;7.97;2.10;;;21.10;62.30;;;;;;4891908;29;20032;-74
2022/09/14 06:36:52;;;;;;;13.63;1.88;;;21.10;62.30;;;;;;4906617;29;20047;-73
2022/09/14 06:39:18;;;;;;;9.75;2.65;;;21.10;62.40;;;;;;4910573;29;20028;-74
2022/09/14 06:41:44;;;;;;;6.95;1.83;;;21.10;62.40;;;;;;4907000;29;20489;-74
2022/09/14 06:44:18;;;;;;;10.23;2.38;;;21.10;62.40;;;;;;4908264;29;20024;-74
2022/09/14 06:46:44;;;;;;;6.97;1.80;;;21.10;62.40;;;;;;4907544;29;20035;-73
2022/09/14 06:49:12;;;;;;;8.40;2.10;;;21.10;62.40;;;;;;4907280;29;20033;-73
2022/09/14 06:51:41;;;;;;;5.72;1.65;;;21.10;62.50;;;;;;4908574;29;20449;-73
2022/09/14 06:54:08;;;;;;;6.95;2.08;;;21.10;62.40;;;;;;4909339;29;20031;-74
2022/09/14 06:56:37;;;;;;;10.60;2.30;;;21.10;62.50;;;;;;4907093;29;20046;-74
2022/09/14 06:59:05;;;;;;;10.02;2.30;;;21.10;62.50;;;;;;4905746;29;20028;-73
2022/09/14 07:01:31;;;;;;;8.05;1.85;;;21.10;62.40;;;;;;4898145;29;20099;-74
2022/09/14 07:03:59;;;;;;;6.80;2.10;;;21.10;62.50;;;;;;4899909;29;20096;-74
2022/09/14 07:06:27;;;;;;;8.88;2.00;;;21.10;62.50;;;;;;4905385;29;20038;-74
2022/09/14 07:08:53;;;;;;;6.38;2.10;;;21.10;62.50;;;;;;4904376;29;20033;-74
2022/09/14 07:11:22;;;;;;;10.73;2.15;;;21.10;62.40;;;;;;4902512;29;20024;-75
2022/09/14 07:13:48;;;;;;;9.20;2.20;;;21.10;62.50;;;;;;4897259;29;20029;-74
2022/09/14 07:16:14;;;;;;;9.32;1.90;;;21.10;62.60;;;;;;4898058;29;20300;-74
2022/09/14 07:18:41;;;;;;;8.45;1.98;;;21.10;63.00;;;;;;4897798;29;20310;-74
2022/09/14 07:21:09;;;;;;;6.50;2.05;;;21.10;62.60;;;;;;4898068;29;20366;-75
2022/09/14 07:23:37;;;;;;;6.57;2.00;;;21.20;62.60;;;;;;4896250;29;20409;-74
2022/09/14 07:26:06;;;;;;;9.63;2.10;;;21.10;62.50;;;;;;4898063;29;20039;-74
2022/09/14 07:28:33;;;;;;;6.88;2.10;;;21.10;62.60;;;;;;4897932;29;20060;-74
2022/09/14 07:31:00;;;;;;;9.50;2.15;;;21.10;62.60;;;;;;4897924;29;20051;-74
2022/09/14 07:33:26;;;;;;;10.82;2.15;;;21.10;62.60;;;;;;4897396;29;20041;-74
2022/09/14 07:35:51;;;;;;;9.32;1.90;;;21.10;62.70;;;;;;4897497;29;20076;-74
2022/09/14 07:38:18;;;;;;;6.18;2.00;;;21.10;62.80;;;;;;4894815;29;20025;-73
2022/09/14 07:40:45;;;;;;;9.50;2.10;;;21.10;62.70;;;;;;4903000;29;20048;-73
2022/09/14 07:43:11;;;;;;;9.52;1.80;;;21.20;62.90;;;;;;4894464;29;20099;-74
2022/09/14 07:45:37;;;;;;;9.80;2.25;;;21.10;62.90;;;;;;4896912;29;20120;-73
2022/09/14 07:48:04;;;;;;;8.68;2.38;;;21.10;63.00;;;;;;4897513;29;20028;-73
2022/09/14 07:50:30;;;;;;;8.93;1.95;;;21.10;63.50;;;;;;4897474;29;20031;-73
2022/09/14 07:52:56;;;;;;;9.73;2.60;;;21.20;63.00;;;;;;4897364;29;20083;-72
2022/09/14 07:55:22;;;;;;;9.82;2.35;;;21.10;63.00;;;;;;4896873;29;20400;-72
2022/09/14 07:57:48;;;;;;;11.50;2.15;;;21.10;63.00;;;;;;4895492;29;20028;-74
2022/09/14 08:00:15;;;;;;;15.30;2.70;;;21.20;63.40;;;;;;4908861;29;20084;-74
2022/09/14 08:02:41;;;;;;;22.15;2.85;;;21.20;63.30;;;;;;4905000;29;20374;-74
2022/09/14 08:05:07;;;;;;;15.10;2.78;;;21.20;63.40;;;;;;4894880;29;20043;-74
2022/09/14 08:07:33;;;;;;;14.27;2.80;;;21.20;63.30;;;;;;4897054;29;20124;-73
2022/09/14 08:09:59;;;;;;;11.88;2.42;;;21.20;63.60;;;;;;4894449;29;20024;-72
2022/09/14 08:12:25;;;;;;;18.48;2.65;;;21.20;63.60;;;;;;4896218;29;20024;-74
2022/09/14 08:14:52;;;;;;;32.40;2.88;;;21.20;63.30;;;;;;4894817;29;20029;-73
2022/09/14 08:17:21;;;;;;;19.90;2.92;;;21.30;64.30;;;;;;4913527;29;20036;-75
2022/09/14 08:19:47;;;;;;;15.18;2.15;;;21.30;64.50;;;;;;4901382;29;20028;-74
2022/09/14 08:22:12;;;;;;;20.30;3.10;;;21.30;64.20;;;;;;4889735;29;20107;-75
2022/09/14 08:24:39;;;;;;;20.70;3.50;;;21.30;64.90;;;;;;4895184;29;20130;-79
2022/09/14 08:27:04;;;;;;;9.18;2.25;;;21.40;64.30;;;;;;4898130;29;20127;-76
2022/09/14 08:29:30;;;;;;;17.83;2.75;;;21.40;63.70;;;;;;4912217;29;20526;-75
2022/09/14 08:31:57;;;;;;;15.32;2.95;;;21.30;63.80;;;;;;4898943;29;20028;-76
2022/09/14 08:34:23;;;;;;;11.05;2.45;;;21.30;64.10;;;;;;4895970;29;20059;-75
2022/09/14 08:36:49;;;;;;;12.48;2.50;;;21.30;64.00;;;;;;4896386;29;20073;-75
2022/09/14 08:39:15;;;;;;;16.13;2.45;;;21.40;64.20;;;;;;4896585;29;20119;-76
2022/09/14 08:41:54;;;;;;;17.80;2.53;;;21.40;64.20;;;;;;4896892;29;20119;-75
2022/09/14 08:44:28;;;;;;;11.15;2.63;;;21.40;64.20;;;;;;4900165;29;20060;-76
2022/09/14 08:47:04;;;;;;;12.98;2.50;;;21.40;63.90;;;;;;4898215;29;20033;-75
2022/09/14 08:50:11;;;;;;;8.48;2.25;;;21.40;63.90;;;;;;4896461;29;20040;-75
2022/09/14 08:52:44;;;;;;;11.07;2.22;;;21.40;63.80;;;;;;4893378;29;20032;-75
2022/09/14 08:55:34;;;;;;;17.45;2.83;;;21.40;63.80;;;;;;4895541;29;20037;-75
2022/09/14 08:58:23;;;;;;;7.88;2.78;;;21.40;64.00;;;;;;4889175;29;20047;-75
2022/09/14 09:01:08;;;;;;;11.65;2.35;;;21.30;64.10;;;;;;4890835;29;20448;-75
2022/09/14 09:04:01;;;;;;;11.27;2.22;;;21.30;64.20;;;;;;4895948;29;20485;-75
2022/09/14 09:07:10;;;;;;;14.25;2.63;;;21.30;64.50;;;;;;4888438;29;20036;-74
2022/09/14 09:09:48;;;;;;;10.07;2.50;;;21.30;64.70;;;;;;4893770;29;20040;-74
2022/09/14 09:12:26;;;;;;;10.93;2.22;;;21.30;64.80;;;;;;4896450;29;20025;-74
2022/09/14 09:14:55;;;;;;;15.15;2.47;;;21.30;65.20;;;;;;4903816;29;20049;-74
2022/09/14 09:17:33;;;;;;;13.02;2.42;;;21.30;65.20;;;;;;4905144;29;20029;-74
2022/09/14 09:20:22;;;;;;;17.95;2.70;;;21.30;65.20;;;;;;4897635;29;20055;-75
2022/09/14 09:23:00;;;;;;;18.75;2.80;;;21.30;65.20;;;;;;4895677;29;20452;-74
2022/09/14 09:25:54;;;;;;;15.43;2.47;;;21.40;65.60;;;;;;4896915;29;20032;-74
2022/09/14 09:28:22;;;;;;;14.32;2.90;;;21.50;66.00;;;;;;4901065;29;20449;-76
2022/09/14 09:30:48;;;;;;;19.92;3.10;;;21.60;66.40;;;;;;4913749;29;20087;-76
2022/09/14 09:33:20;;;;;;;23.38;2.55;;;21.60;65.00;;;;;;4908069;29;20476;-76
2022/09/14 09:36:17;;;;;;;13.60;2.58;;;21.60;64.80;;;;;;4918046;29;20047;-75
2022/09/14 09:38:43;;;;;;;10.40;2.30;;;21.50;64.50;;;;;;4916101;29;20551;-75
2022/09/14 09:41:22;;;;;;;13.75;2.85;;;21.50;64.60;;;;;;4898840;29;20115;-76
2022/09/14 09:44:01;;;;;;;15.15;2.63;;;21.50;64.80;;;;;;4898313;29;20032;-76
2022/09/14 09:46:30;;;;;;;13.48;2.47;;;21.50;64.90;;;;;;4899698;29;20039;-76
2022/09/14 09:48:57;;;;;;;8.60;1.98;;;21.50;64.80;;;;;;4883122;29;20112;-75
2022/09/14 09:51:23;;;;;;;15.18;2.97;;;21.50;64.90;;;;;;4899706;29;20115;-76
2022/09/14 09:54:13;;;;;;;11.07;2.47;;;21.50;64.90;;;;;;4899233;29;20115;-76
2022/09/14 09:56:51;;;;;;;11.57;2.08;;;21.50;64.90;;;;;;4899619;29;20061;-75
2022/09/14 09:59:36;;;;;;;12.98;2.22;;;21.40;65.00;;;;;;4899568;29;20020;-75
2022/09/14 10:02:23;;;;;;;10.88;2.40;;;21.50;64.90;;;;;;4899404;29;20367;-75
2022/09/14 10:04:58;;;;;;;13.48;2.90;;;21.50;64.90;;;;;;4898205;29;20036;-75
2022/09/14 10:07:25;;;;;;;9.35;2.33;;;21.50;64.90;;;;;;4899553;29;20190;-76
2022/09/14 10:10:01;;;;;;;10.20;2.50;;;21.50;64.90;;;;;;4898287;29;20040;-76
2022/09/14 10:12:28;;;;;;;8.50;1.90;;;21.40;64.80;;;;;;4899690;29;20084;-77
2022/09/14 10:15:14;;;;;;;13.15;2.67;;;21.50;64.90;;;;;;4898931;29;20433;-77
2022/09/14 10:17:51;;;;;;;10.48;2.25;;;21.40;64.90;;;;;;4899117;29;20121;-76
2022/09/14 10:20:23;;;;;;;9.70;2.40;;;21.40;64.80;;;;;;4898245;29;20032;-77
2022/09/14 10:22:49;;;;;;;10.82;2.22;;;21.40;64.90;;;;;;4898595;29;20024;-77
2022/09/14 10:25:18;;;;;;;9.77;2.50;;;21.40;64.90;;;;;;4902300;29;20079;-80
2022/09/14 10:27:59;;;;;;;17.08;3.28;;;21.40;65.00;;;;;;4898522;29;20452;-76
2022/09/14 10:30:39;;;;;;;10.10;2.33;;;21.40;65.50;;;;;;4897321;29;20043;-76
2022/09/14 10:33:09;;;;;;;12.57;2.80;;;21.40;65.10;;;;;;4898960;29;20048;-77
2022/09/14 10:35:57;;;;;;;15.02;2.95;;;21.40;65.30;;;;;;4895783;29;20119;-80
2022/09/14 10:38:36;;;;;;;12.27;2.92;;;21.40;65.10;;;;;;4868647;29;20028;-80
2022/09/14 10:41:05;;;;;;;13.20;3.00;;;21.40;65.00;;;;;;4906813;29;20031;-79
2022/09/14 10:43:55;;;;;;;16.42;2.13;;;21.40;65.10;;;;;;4897540;29;20108;-79
2022/09/14 10:46:29;;;;;;;11.77;2.72;;;21.40;65.00;;;;;;4901338;29;20028;-79
2022/09/14 10:49:30;;;;;;;6.25;1.90;;;21.40;64.80;;;;;;4891957;29;20032;-79
2022/09/14 10:52:23;;;;;;;13.32;2.35;;;21.40;64.90;;;;;;4881945;29;20119;-80
2022/09/14 10:54:58;;;;;;;16.50;2.50;;;21.50;65.30;;;;;;4883142;29;20500;-78
2022/09/14 10:58:01;;;;;;;14.35;2.60;;;21.50;65.50;;;;;;4892052;29;20039;-79
2022/09/14 11:00:35;;;;;;;14.38;2.30;;;21.50;66.00;;;;;;4900737;29;20051;-79
2022/09/14 11:03:38;;;;;;;13.05;2.50;;;21.50;65.30;;;;;;4888772;29;20029;-75
2022/09/14 11:06:35;;;;;;;21.63;3.00;;;21.50;65.20;;;;;;4875497;29;20063;-77
2022/09/14 11:09:21;;;;;;;12.15;2.38;;;21.50;64.80;;;;;;4890211;29;20048;-76
2022/09/14 11:12:06;;;;;;;14.13;2.45;;;21.50;64.90;;;;;;4893301;29;20024;-77
2022/09/14 11:15:09;;;;;;;11.02;2.75;;;21.50;65.10;;;;;;4894570;29;20041;-79
2022/09/14 11:18:17;;;;;;;17.63;2.67;;;21.50;64.70;;;;;;4896013;29;20036;-77
2022/09/14 11:20:52;;;;;;;27.55;3.33;;;21.50;64.70;;;;;;4895900;29;20037;-76
2022/09/14 11:23:36;;;;;;;18.20;3.65;;;21.50;64.30;;;;;;4886873;29;20055;-75
2022/09/14 11:26:09;;;;;;;12.35;2.53;;;21.50;64.20;;;;;;4914841;29;20054;-76
2022/09/14 11:28:41;;;;;;;19.98;2.92;;;21.50;64.10;;;;;;4899782;29;20036;-76
2022/09/14 11:31:28;;;;;;;9.13;2.15;;;21.50;63.40;;;;;;4898021;29;20488;-75
2022/09/14 11:34:23;;;;;;;13.52;2.42;;;21.40;63.60;;;;;;4894489;29;21528;-76
2022/09/14 11:36:57;;;;;;;13.07;2.40;;;21.40;63.70;;;;;;4881410;29;20036;-76
2022/09/14 11:39:43;;;;;;;20.15;2.53;;;21.40;63.30;;;;;;4898150;29;20092;-75
2022/09/14 11:42:50;;;;;;;16.77;2.47;;;21.40;63.60;;;;;;4895360;29;20028;-75
2022/09/14 11:45:33;;;;;;;35.55;19.23;;;21.40;63.90;;;;;;4923303;23;20051;-77
2022/09/14 11:48:12;;;;;;;26.77;13.90;;;21.40;63.30;;;;;;4919782;29;20470;-77
2022/09/14 11:50:39;;;;;;;56.75;32.47;;;21.40;63.10;;;;;;4947122;28;20345;-78
2022/09/14 11:53:14;;;;;;;44.88;28.58;;;21.40;62.00;;;;;;4939816;29;20092;-76
2022/09/14 11:55:45;;;;;;;36.70;18.98;;;21.30;62.00;;;;;;4947638;29;20030;-77
2022/09/14 11:58:22;;;;;;;40.53;24.35;;;21.40;61.10;;;;;;4946361;28;20027;-77
2022/09/14 12:00:48;;;;;;;33.90;20.63;;;21.40;60.90;;;;;;4941649;29;20020;-77
2022/09/14 12:03:44;;;;;;;30.35;17.80;;;21.40;60.70;;;;;;4935121;29;20106;-78
2022/09/14 12:06:29;;;;;;;32.50;19.48;;;21.30;58.60;;;;;;4934101;29;20062;-77
2022/09/14 12:09:21;;;;;;;23.00;10.75;;;21.30;59.90;;;;;;4938008;29;20036;-85
2022/09/14 12:11:48;;;;;;;34.08;16.00;;;21.30;59.10;;;;;;4944282;29;20069;-78
2022/09/14 12:14:27;;;;;;;25.55;10.82;;;21.30;59.40;;;;;;4943824;28;20501;-78
2022/09/14 12:17:03;;;;;;;;;;;21.30;58.50;;;;;;4939944;29;20050;-78
2022/09/14 12:19:30;;;;;;;20.85;9.23;;;21.30;59.40;;;;;;4933200;29;19914;-79
2022/09/14 12:22:16;;;;;;;20.25;9.45;;;21.30;58.90;;;;;;4934373;29;20055;-79
2022/09/14 12:24:42;;;;;;;18.60;8.75;;;21.40;59.00;;;;;;4934127;29;20083;-79
2022/09/14 12:27:22;;;;;;;21.13;8.32;;;21.40;59.30;;;;;;4934124;29;20031;-79
2022/09/14 12:29:47;;;;;;;17.83;8.25;;;21.30;59.10;;;;;;4934431;29;20035;-79
2022/09/14 12:32:35;;;;;;;20.38;8.95;;;21.40;59.30;;;;;;4934035;29;20031;-79
2022/09/14 12:35:37;;;;;;;17.02;7.63;;;21.40;59.50;;;;;;4934326;29;20032;-79
2022/09/14 12:38:28;;;;;;;17.75;7.85;;;21.30;59.40;;;;;;4934922;29;20032;-79
2022/09/14 12:41:14;;;;;;;19.90;6.97;;;21.30;59.80;;;;;;4934976;29;20028;-79
2022/09/14 12:43:40;;;;;;;21.63;7.38;;;21.30;59.70;;;;;;4933829;29;20461;-79
2022/09/14 12:46:20;;;;;;;17.65;7.60;;;21.40;60.10;;;;;;4934762;29;20035;-79
2022/09/14 12:48:46;;;;;;;20.98;7.50;;;21.40;60.10;;;;;;4934546;29;20032;-79
2022/09/14 12:51:28;;;;;;;18.42;6.78;;;21.30;60.10;;;;;;4934164;29;20358;-78
2022/09/14 12:53:57;;;;;;;16.45;7.15;;;21.30;60.10;;;;;;4934150;29;20071;-78
2022/09/14 12:56:29;;;;;;;15.90;6.10;;;21.30;60.00;;;;;;4933466;29;20437;-77
2022/09/14 12:59:07;;;;;;;16.50;6.07;;;21.30;60.00;;;;;;4934539;29;20091;-78
2022/09/14 13:02:18;;;;;;;13.52;5.65;;;21.30;60.10;;;;;;4934424;29;20032;-79
2022/09/14 13:04:46;;;;;;;16.17;5.25;;;21.30;59.80;;;;;;4929234;29;20114;-79
2022/09/14 13:07:17;;;;;;;13.00;5.82;;;21.30;60.10;;;;;;4917333;29;20404;-79
2022/09/14 13:09:49;;;;;;;15.60;5.80;;;21.30;60.20;;;;;;4934365;29;20087;-79
2022/09/14 13:12:27;;;;;;;14.48;5.65;;;21.30;60.30;;;;;;4934453;29;20032;-79